Aérodrome :







RETROUVEZ-NOUS SUR...

 
LOGIN :

S'inscrire | Disclaimer

   EN    FR    IT 

 









Légende :    VFR   VFR Marginal   IFR   IFR Intensif   IFR Très Intensif
Visi : 
Plafond : 
>= 8 km
>= 3000ft
5 à 8 km
1000 à 3000 ft
1500m à 5 km
500 à 1000 ft
800 à 1500m
200 à 500 ft
< 800m
< 200 ft
Symboles :   Orages  Brouillard  Fortes neiges  Fortes précipitations  Vent > 20 kt






- Altitude de l'aérodrome : 10 ft
- Code IATA : BRX


MDBH - Maria Montez Int.

DERNIER METAR :
  • 061800Z 13015KT 9999 FEW022CB FEW024 SCT300 32/23 Q1014 CB/E/N

METARs EXPIRÉS :
  • 061700Z 13014KT 9999 FEW022CB FEW024 SCT300 32/22 Q1015 CB/E
  • 061600Z 13005KT 9999 FEW023 SCT100 32/25 Q1017

TAF TAF MDBH
Valide du 06 à 18h jusqu'au 07 à 18h UTC


061600Z 0618/0718 13015KT 9999 FEW016CB SCT018 SCT300
PROB30
TEMPO 0702/0708 8000 -TSRA FEW014CB BKN016 BKN070
BECMG 0710/0712 27006KT



MET'MAP, la Météo Aéronautique d'un coup d'oeil ! - Copyright ORBIFLY Décembre 2007 - Disclaimer

ORBIFLY MET'MAP TEAM :

Programmation & Développement : Alexandra Zaïnal
Sur une idée originale de : Baudouin d'Aumeries
Assistance à la programmation : Marc-Olivier Méhu
Soutien technique & logistique : Manuel Goepfert

Contact : metmap@orbifly.com




SOURCES & CREDITS :

   NOAA